Time;durP1;ratioP1;P1;durP2;ratioP2;P2;SDS_P1;SDS_P2;PMS_P1;PMS_P2;Temp;Humidity;BMP_temperature;BMP_pressure;BME280_temperature;BME280_humidity;BME280_pressure;Samples;Min_cycle;Max_cycle;Signal;HPM_P1;HPM_P2
2022/10/06 00:00:16;;;;;;;11.82;1.35;;;;;;;;;;5050655;28;20517;-69
2022/10/06 00:02:41;;;;;;;4.47;1.05;;;;;;;;;;5069889;28;20077;-69
2022/10/06 00:05:06;;;;;;;8.52;1.30;;;;;;;;;;5070124;28;20043;-69
2022/10/06 00:07:33;;;;;;;12.10;0.80;;;;;;;;;;5069321;28;20067;-69
2022/10/06 00:09:58;;;;;;;7.13;1.45;;;;;;;;;;5070168;28;20025;-69
2022/10/06 00:12:23;;;;;;;2.53;0.77;;;;;;;;;;5069372;28;20036;-69
2022/10/06 00:14:49;;;;;;;6.72;1.10;;;;;;;;;;5061149;28;20044;-69
2022/10/06 00:17:14;;;;;;;8.65;1.02;;;;;;;;;;5049036;28;20017;-68
2022/10/06 00:19:39;;;;;;;5.13;0.90;;;;;;;;;;5048985;28;20439;-69
2022/10/06 00:22:05;;;;;;;8.32;0.98;;;;;;;;;;5048948;28;20771;-69
2022/10/06 00:24:31;;;;;;;3.90;0.90;;;;;;;;;;5041398;28;20089;-69
2022/10/06 00:26:56;;;;;;;2.88;0.95;;;;;;;;;;5051644;28;20532;-69
2022/10/06 00:29:21;;;;;;;12.75;1.65;;;;;;;;;;5070240;28;20599;-69
2022/10/06 00:31:46;;;;;;;5.93;1.25;;;;;;;;;;5065544;28;20034;-69
2022/10/06 00:34:12;;;;;;;6.60;1.42;;;;;;;;;;5043612;28;20572;-69
2022/10/06 00:36:37;;;;;;;5.15;0.82;;;;;;;;;;5047683;28;20036;-68
2022/10/06 00:39:02;;;;;;;7.35;1.08;;;;;;;;;;5048894;28;20463;-68
2022/10/06 00:41:28;;;;;;;6.70;1.10;;;;;;;;;;5050025;28;20439;-69
2022/10/06 00:43:57;;;;;;;7.18;1.25;;;;;;;;;;5045002;28;20044;-69
2022/10/06 00:46:46;;;;;;;4.63;0.93;;;;;;;;;;5027627;28;20107;-68
2022/10/06 00:49:17;;;;;;;12.50;1.38;;;;;;;;;;5029433;28;20107;-69
2022/10/06 00:52:08;;;;;;;1.63;0.88;;;;;;;;;;5028889;28;20041;-69
2022/10/06 00:54:35;;;;;;;3.00;0.90;;;;;;;;;;5024030;28;20570;-68
2022/10/06 00:57:01;;;;;;;2.50;0.93;;;;;;;;;;5029411;28;20052;-69
2022/10/06 00:59:27;;;;;;;4.60;1.17;;;;;;;;;;5029087;28;20087;-69
2022/10/06 01:02:19;;;;;;;8.30;1.00;;;;;;;;;;5029425;28;20034;-68
2022/10/06 01:04:48;;;;;;;4.03;1.20;;;;;;;;;;5029102;28;20044;-69
2022/10/06 01:07:17;;;;;;;12.13;1.20;;;;;;;;;;5029014;28;20099;-68
2022/10/06 01:09:42;;;;;;;10.90;1.33;;;;;;;;;;5029990;28;20033;-69
2022/10/06 01:12:08;;;;;;;4.88;0.90;;;;;;;;;;5052663;28;20039;-68
2022/10/06 01:14:36;;;;;;;4.30;1.02;;;;;;;;;;5033043;28;20052;-68
2022/10/06 01:17:10;;;;;;;5.38;1.00;;;;;;;;;;5049137;28;20032;-68
2022/10/06 01:19:43;;;;;;;5.55;0.73;;;;;;;;;;5048592;28;20611;-68
2022/10/06 01:22:09;;;;;;;;;;;;;;;;;;5049166;28;20033;-68
2022/10/06 01:24:35;;;;;;;8.60;1.63;;;;;;;;;;5040322;28;19919;-69
2022/10/06 01:27:02;;;;;;;10.77;1.20;;;;;;;;;;5050738;28;20111;-68
2022/10/06 01:29:31;;;;;;;9.25;1.20;;;;;;;;;;5068468;28;20020;-69
2022/10/06 01:31:56;;;;;;;6.18;0.95;;;;;;;;;;5068084;28;20129;-68
2022/10/06 01:34:22;;;;;;;6.80;1.50;;;;;;;;;;5050440;28;20083;-68
2022/10/06 01:36:47;;;;;;;10.80;1.15;;;;;;;;;;5059086;28;20048;-69
2022/10/06 01:39:12;;;;;;;5.15;1.13;;;;;;;;;;5047906;28;20029;-69
2022/10/06 01:41:38;;;;;;;10.18;1.40;;;;;;;;;;5048514;28;20021;-69
2022/10/06 01:44:03;;;;;;;9.80;1.40;;;;;;;;;;5048385;28;20017;-69
2022/10/06 01:46:29;;;;;;;4.88;1.40;;;;;;;;;;5047941;28;20111;-69
2022/10/06 01:48:54;;;;;;;6.28;1.52;;;;;;;;;;5030314;28;20075;-68
2022/10/06 01:51:20;;;;;;;7.00;1.02;;;;;;;;;;5048112;28;20033;-69
2022/10/06 01:53:45;;;;;;;6.05;1.05;;;;;;;;;;5047610;28;20078;-69
2022/10/06 01:56:11;;;;;;;4.80;0.90;;;;;;;;;;5047842;28;20021;-69
2022/10/06 01:58:36;;;;;;;9.23;1.27;;;;;;;;;;5047937;28;20033;-69
2022/10/06 02:01:08;;;;;;;11.45;1.42;;;;;;;;;;5048184;28;20211;-69
2022/10/06 02:03:35;;;;;;;3.20;1.10;;;;;;;;;;5057965;28;20124;-69
2022/10/06 02:06:00;;;;;;;6.30;1.30;;;;;;;;;;5067607;28;20090;-69
2022/10/06 02:08:26;;;;;;;6.15;1.02;;;;;;;;;;5068218;28;20028;-68
2022/10/06 02:10:51;;;;;;;6.35;1.20;;;;;;;;;;5068014;28;20029;-68
2022/10/06 02:13:16;;;;;;;8.32;1.30;;;;;;;;;;5067744;28;20544;-69
2022/10/06 02:15:42;;;;;;;5.97;1.35;;;;;;;;;;5043916;28;20032;-69
2022/10/06 02:18:07;;;;;;;8.70;0.95;;;;;;;;;;5043874;28;20108;-69
2022/10/06 02:20:32;;;;;;;6.72;1.20;;;;;;;;;;5047888;28;20027;-69
2022/10/06 02:22:58;;;;;;;5.43;0.85;;;;;;;;;;5047668;28;20097;-68
2022/10/06 02:25:23;;;;;;;5.25;1.05;;;;;;;;;;5029390;28;20087;-69
2022/10/06 02:27:48;;;;;;;5.85;1.42;;;;;;;;;;5048127;28;20501;-68
2022/10/06 02:30:14;;;;;;;5.20;1.45;;;;;;;;;;5047189;28;20025;-69
2022/10/06 02:32:41;;;;;;;6.20;1.20;;;;;;;;;;5047666;28;20031;-68
2022/10/06 02:35:07;;;;;;;7.28;1.00;;;;;;;;;;5047726;28;20021;-69
2022/10/06 02:37:33;;;;;;;6.75;1.20;;;;;;;;;;5047582;28;20086;-69
2022/10/06 02:39:58;;;;;;;3.95;0.90;;;;;;;;;;5047342;28;20037;-68
2022/10/06 02:42:24;;;;;;;10.52;1.52;;;;;;;;;;5047368;28;20108;-68
2022/10/06 02:44:51;;;;;;;5.70;1.30;;;;;;;;;;5032254;28;20041;-68
2022/10/06 02:47:17;;;;;;;7.47;1.00;;;;;;;;;;5053381;28;20025;-68
2022/10/06 02:49:43;;;;;;;3.80;1.10;;;;;;;;;;5051474;28;20048;-69
2022/10/06 02:52:10;;;;;;;8.20;1.17;;;;;;;;;;5050774;28;20060;-68
2022/10/06 02:54:35;;;;;;;5.40;1.00;;;;;;;;;;5051412;28;20128;-68
2022/10/06 02:57:01;;;;;;;10.13;1.30;;;;;;;;;;5051012;28;20108;-67
2022/10/06 02:59:26;;;;;;;6.15;1.30;;;;;;;;;;5051907;28;20025;-68
2022/10/06 03:01:51;;;;;;;10.52;1.30;;;;;;;;;;5051239;28;20021;-69
2022/10/06 03:04:17;;;;;;;8.05;1.10;;;;;;;;;;5040879;28;20029;-69
2022/10/06 03:06:43;;;;;;;8.57;1.25;;;;;;;;;;5042371;28;20754;-68
2022/10/06 03:09:09;;;;;;;7.85;1.20;;;;;;;;;;5051237;28;20028;-69
2022/10/06 03:11:37;;;;;;;3.03;0.77;;;;;;;;;;5050793;28;20056;-68
2022/10/06 03:14:03;;;;;;;5.55;1.10;;;;;;;;;;5051668;28;20029;-69
2022/10/06 03:16:33;;;;;;;8.90;2.25;;;;;;;;;;5049229;28;20033;-68
2022/10/06 03:18:59;;;;;;;5.93;1.40;;;;;;;;;;5049403;28;20124;-68
2022/10/06 03:21:27;;;;;;;3.92;0.93;;;;;;;;;;5051213;28;20565;-67
2022/10/06 03:23:53;;;;;;;4.07;1.30;;;;;;;;;;5048930;28;20163;-68
2022/10/06 03:26:21;;;;;;;8.82;1.40;;;;;;;;;;5051226;28;20024;-68
2022/10/06 03:28:47;;;;;;;10.13;1.25;;;;;;;;;;5050815;28;20029;-68
2022/10/06 03:31:13;;;;;;;7.90;1.48;;;;;;;;;;5050341;28;20025;-69
2022/10/06 03:33:39;;;;;;;8.35;1.25;;;;;;;;;;5046600;28;20036;-68
2022/10/06 03:36:10;;;;;;;9.70;1.30;;;;;;;;;;5050979;28;20025;-68
2022/10/06 03:38:36;;;;;;;10.00;1.30;;;;;;;;;;5031996;28;20241;-68
2022/10/06 03:41:02;;;;;;;4.97;1.00;;;;;;;;;;5050577;28;20016;-70
2022/10/06 03:43:27;;;;;;;6.28;1.42;;;;;;;;;;5050654;28;20678;-69
2022/10/06 03:45:56;;;;;;;15.43;1.88;;;;;;;;;;5050139;28;20045;-68
2022/10/06 03:48:22;;;;;;;6.43;1.25;;;;;;;;;;5038117;28;20055;-68
2022/10/06 03:50:58;;;;;;;7.53;1.33;;;;;;;;;;5032151;28;20498;-68
2022/10/06 03:53:26;;;;;;;5.40;0.93;;;;;;;;;;5032664;28;20025;-68
2022/10/06 03:56:12;;;;;;;6.22;1.20;;;;;;;;;;5036794;28;20117;-68
2022/10/06 03:58:43;;;;;;;5.85;1.20;;;;;;;;;;5051789;28;20581;-68
2022/10/06 04:01:17;;;;;;;7.55;0.90;;;;;;;;;;5052146;28;20056;-68
2022/10/06 04:03:43;;;;;;;7.50;1.17;;;;;;;;;;5068514;28;20032;-68
2022/10/06 04:06:12;;;;;;;6.97;1.20;;;;;;;;;;5070139;28;20035;-68
2022/10/06 04:08:39;;;;;;;5.60;1.38;;;;;;;;;;5070002;28;20028;-68
2022/10/06 04:11:08;;;;;;;5.75;1.23;;;;;;;;;;5069673;28;20082;-68
2022/10/06 04:13:34;;;;;;;6.47;1.05;;;;;;;;;;5051808;28;20068;-68
2022/10/06 04:16:08;;;;;;;6.07;1.00;;;;;;;;;;5069396;28;20056;-68
2022/10/06 04:18:34;;;;;;;5.13;1.20;;;;;;;;;;5069710;28;20025;-68
2022/10/06 04:20:59;;;;;;;6.43;1.40;;;;;;;;;;5066227;28;20036;-68
2022/10/06 04:23:24;;;;;;;9.68;2.10;;;;;;;;;;5047714;28;20611;-68
2022/10/06 04:25:56;;;;;;;6.88;1.38;;;;;;;;;;5027650;28;20422;-68
2022/10/06 04:28:21;;;;;;;8.35;1.52;;;;;;;;;;5029165;28;20498;-68
2022/10/06 04:30:57;;;;;;;10.20;1.98;;;;;;;;;;5041474;28;20159;-68
2022/10/06 04:33:22;;;;;;;9.00;1.85;;;;;;;;;;5035975;28;20544;-69
2022/10/06 04:35:55;;;;;;;4.25;1.70;;;;;;;;;;5029786;28;20104;-68
2022/10/06 04:38:21;;;;;;;6.50;1.42;;;;;;;;;;5029435;28;20394;-68
2022/10/06 04:40:46;;;;;;;6.57;1.23;;;;;;;;;;5048494;28;20041;-68
2022/10/06 04:43:12;;;;;;;5.43;1.42;;;;;;;;;;5049732;28;20037;-68
2022/10/06 04:45:37;;;;;;;6.90;1.80;;;;;;;;;;5030822;28;20032;-68
2022/10/06 04:48:02;;;;;;;6.40;1.30;;;;;;;;;;5049234;28;20087;-68
2022/10/06 04:50:28;;;;;;;9.45;1.95;;;;;;;;;;5049640;28;20029;-68
2022/10/06 04:52:53;;;;;;;10.43;1.73;;;;;;;;;;5048751;28;20772;-69
2022/10/06 04:55:18;;;;;;;16.73;1.95;;;;;;;;;;5049214;28;20037;-69
2022/10/06 04:57:44;;;;;;;12.02;1.70;;;;;;;;;;5048158;28;20044;-69
2022/10/06 05:00:22;;;;;;;8.50;1.63;;;;;;;;;;5031241;28;20498;-68
2022/10/06 05:02:48;;;;;;;12.75;1.63;;;;;;;;;;5048789;28;20079;-68
2022/10/06 05:05:13;;;;;;;9.43;1.65;;;;;;;;;;5049487;28;20029;-68
2022/10/06 05:07:39;;;;;;;8.65;2.10;;;;;;;;;;5048557;28;20043;-68
2022/10/06 05:10:05;;;;;;;11.90;1.58;;;;;;;;;;5044879;28;20038;-68
2022/10/06 05:12:30;;;;;;;6.50;1.40;;;;;;;;;;5067756;28;20413;-68
2022/10/06 05:14:56;;;;;;;7.55;1.38;;;;;;;;;;5068957;28;20124;-68
2022/10/06 05:17:22;;;;;;;10.82;2.00;;;;;;;;;;5051274;28;20044;-69
2022/10/06 05:19:47;;;;;;;17.38;1.73;;;;;;;;;;5068127;28;20064;-68
2022/10/06 05:22:12;;;;;;;11.00;1.70;;;;;;;;;;5050183;28;20152;-68
2022/10/06 05:24:38;;;;;;;4.35;1.45;;;;;;;;;;5067692;28;20119;-68
2022/10/06 05:27:05;;;;;;;15.30;1.95;;;;;;;;;;5068740;28;20401;-69
2022/10/06 05:29:30;;;;;;;9.48;1.60;;;;;;;;;;5068628;28;20028;-68
2022/10/06 05:31:56;;;;;;;7.57;1.40;;;;;;;;;;5067867;28;20043;-68
2022/10/06 05:34:21;;;;;;;7.55;1.85;;;;;;;;;;5067425;28;20032;-68
2022/10/06 05:36:46;;;;;;;5.82;1.38;;;;;;;;;;5067968;28;20045;-68
2022/10/06 05:39:12;;;;;;;6.57;1.63;;;;;;;;;;5061758;28;20112;-68
2022/10/06 05:41:37;;;;;;;10.13;1.33;;;;;;;;;;5048040;28;20032;-68
2022/10/06 05:44:02;;;;;;;4.68;1.30;;;;;;;;;;5029296;28;20021;-68
2022/10/06 05:46:30;;;;;;;5.40;1.33;;;;;;;;;;5041535;28;20040;-68
2022/10/06 05:48:59;;;;;;;7.53;1.15;;;;;;;;;;5047651;28;20060;-68
2022/10/06 05:51:27;;;;;;;13.55;1.48;;;;;;;;;;5030222;28;20112;-68
2022/10/06 05:53:53;;;;;;;7.03;1.80;;;;;;;;;;5047629;28;20029;-68
2022/10/06 05:56:29;;;;;;;7.47;1.50;;;;;;;;;;5048757;28;20028;-68
2022/10/06 05:58:56;;;;;;;10.35;1.73;;;;;;;;;;5030076;28;20055;-69
2022/10/06 06:01:29;;;;;;;4.90;1.30;;;;;;;;;;5047472;28;20090;-68
2022/10/06 06:04:01;;;;;;;3.58;1.30;;;;;;;;;;5048185;28;20044;-68
2022/10/06 06:06:40;;;;;;;9.57;1.55;;;;;;;;;;5048123;28;20464;-68
2022/10/06 06:09:12;;;;;;;9.73;1.70;;;;;;;;;;5068099;28;20052;-68
2022/10/06 06:11:40;;;;;;;16.00;1.95;;;;;;;;;;5061420;28;20039;-68
2022/10/06 06:14:11;;;;;;;10.23;1.40;;;;;;;;;;5062555;28;20067;-69
2022/10/06 06:16:38;;;;;;;7.38;1.40;;;;;;;;;;5034093;28;20135;-69
2022/10/06 06:19:04;;;;;;;8.32;1.60;;;;;;;;;;5047226;28;20037;-69
2022/10/06 06:21:30;;;;;;;15.60;1.75;;;;;;;;;;5047349;28;20406;-69
2022/10/06 06:23:55;;;;;;;16.00;2.50;;;;;;;;;;5064028;28;20032;-69
2022/10/06 06:26:26;;;;;;;6.95;1.70;;;;;;;;;;5067307;28;20405;-69
2022/10/06 06:28:53;;;;;;;10.63;2.08;;;;;;;;;;5067243;28;20048;-69
2022/10/06 06:31:21;;;;;;;9.82;1.80;;;;;;;;;;5055170;28;20043;-69
2022/10/06 06:33:50;;;;;;;9.38;2.05;;;;;;;;;;5055345;28;20041;-69
2022/10/06 06:36:27;;;;;;;7.30;2.28;;;;;;;;;;5025897;28;20033;-69
2022/10/06 06:38:54;;;;;;;11.02;2.00;;;;;;;;;;5030558;28;20025;-69
2022/10/06 06:41:28;;;;;;;6.93;1.70;;;;;;;;;;5042194;28;20024;-69
2022/10/06 06:43:53;;;;;;;;;;;;;;;;;;5028623;28;20048;-69
2022/10/06 06:46:22;;;;;;;9.57;1.90;;;;;;;;;;5042227;28;19917;-68
2022/10/06 06:48:49;;;;;;;7.07;1.58;;;;;;;;;;5031062;28;20072;-68
2022/10/06 06:51:15;;;;;;;13.70;1.90;;;;;;;;;;5023578;28;20056;-69
2022/10/06 06:53:40;;;;;;;9.63;1.90;;;;;;;;;;5026018;28;20491;-68
2022/10/06 06:56:07;;;;;;;11.05;1.90;;;;;;;;;;5026074;28;20029;-69
2022/10/06 06:58:36;;;;;;;6.78;1.65;;;;;;;;;;5023565;28;20041;-68
2022/10/06 07:01:10;;;;;;;3.28;2.05;;;;;;;;;;5025735;28;20037;-69
2022/10/06 07:03:38;;;;;;;10.55;2.33;;;;;;;;;;5024642;28;20040;-69
2022/10/06 07:06:11;;;;;;;12.15;1.98;;;;;;;;;;5029967;28;20040;-69
2022/10/06 07:08:37;;;;;;;;;;;;;;;;;;5040739;28;20114;-69
2022/10/06 07:11:24;;;;;;;8.23;1.52;;;;;;;;;;5044475;28;19920;-69
2022/10/06 07:13:52;;;;;;;13.50;1.98;;;;;;;;;;5045075;28;20135;-69
2022/10/06 07:27:23;;;;;;;;;;;;;;;;;;5033097;28;20052;-69
2022/10/06 07:29:53;;;;;;;8.25;2.38;;;;;;;;;;5037368;28;20499;-69
2022/10/06 07:32:20;;;;;;;10.13;2.10;;;;;;;;;;5048451;28;20050;-69
2022/10/06 07:34:46;;;;;;;7.65;2.03;;;;;;;;;;5049186;28;20045;-69
2022/10/06 07:37:11;;;;;;;9.70;2.08;;;;;;;;;;5049920;28;20033;-68
2022/10/06 07:39:36;;;;;;;11.82;1.88;;;;;;;;;;5053291;28;20770;-69
2022/10/06 07:42:06;;;;;;;11.00;1.52;;;;;;;;;;5039235;28;20035;-69
2022/10/06 07:44:31;;;;;;;12.45;2.20;;;;;;;;;;5031204;28;20630;-69
2022/10/06 07:46:56;;;;;;;15.30;1.52;;;;;;;;;;5030520;28;20038;-69
2022/10/06 07:49:22;;;;;;;12.98;1.85;;;;;;;;;;5030807;28;20044;-69
2022/10/06 07:51:47;;;;;;;11.02;1.67;;;;;;;;;;5028646;28;20049;-69
2022/10/06 07:54:12;;;;;;;10.27;1.60;;;;;;;;;;5030787;28;20041;-69
2022/10/06 07:56:38;;;;;;;10.15;1.95;;;;;;;;;;5030372;28;20466;-69
2022/10/06 07:59:03;;;;;;;5.97;1.50;;;;;;;;;;5056018;28;20075;-69
2022/10/06 08:01:29;;;;;;;11.27;1.70;;;;;;;;;;5068296;28;20032;-69
2022/10/06 08:03:55;;;;;;;9.40;1.90;;;;;;;;;;5042928;28;20538;-69
2022/10/06 08:06:22;;;;;;;5.65;1.58;;;;;;;;;;5052915;28;20029;-69
2022/10/06 08:08:48;;;;;;;10.63;2.25;;;;;;;;;;5049236;28;20778;-68
2022/10/06 08:11:14;;;;;;;9.43;1.80;;;;;;;;;;5045339;28;20036;-69
2022/10/06 08:13:42;;;;;;;9.10;1.80;;;;;;;;;;5023336;28;20060;-69
2022/10/06 08:16:19;;;;;;;10.13;1.92;;;;;;;;;;5009765;28;20037;-69
2022/10/06 08:18:53;;;;;;;8.57;1.85;;;;;;;;;;5025481;28;20034;-69
2022/10/06 08:21:22;;;;;;;11.20;2.15;;;;;;;;;;5020740;28;20419;-69
2022/10/06 08:23:48;;;;;;;9.27;1.33;;;;;;;;;;5026295;28;20462;-69
2022/10/06 08:26:15;;;;;;;14.25;2.80;;;;;;;;;;5029022;28;20036;-69
2022/10/06 08:28:46;;;;;;;7.05;2.03;;;;;;;;;;5026684;28;20518;-67
2022/10/06 08:31:14;;;;;;;7.78;2.00;;;;;;;;;;5028629;28;20116;-69
2022/10/06 08:33:43;;;;;;;7.30;1.35;;;;;;;;;;5027183;28;20426;-69
2022/10/06 08:36:18;;;;;;;14.60;3.00;;;;;;;;;;5028762;28;20037;-69
2022/10/06 08:38:48;;;;;;;11.25;1.55;;;;;;;;;;5027347;28;20029;-69
2022/10/06 08:41:43;;;;;;;10.15;1.75;;;;;;;;;;5026151;28;20080;-69
2022/10/06 08:44:17;;;;;;;7.30;2.25;;;;;;;;;;5026194;28;20053;-69
2022/10/06 08:47:24;;;;;;;8.13;1.38;;;;;;;;;;5026813;28;20041;-69
2022/10/06 08:49:53;;;;;;;4.75;1.40;;;;;;;;;;5017198;28;20080;-69
2022/10/06 08:52:45;;;;;;;7.38;1.30;;;;;;;;;;5026506;28;20041;-69
2022/10/06 08:55:36;;;;;;;7.20;1.23;;;;;;;;;;5028226;28;20033;-69
2022/10/06 08:58:10;;;;;;;6.50;1.38;;;;;;;;;;5027513;28;20099;-69
2022/10/06 09:00:36;;;;;;;10.65;1.33;;;;;;;;;;5023587;28;20034;-69
2022/10/06 09:03:02;;;;;;;5.82;1.45;;;;;;;;;;5027363;28;20501;-69
2022/10/06 09:05:30;;;;;;;12.68;1.25;;;;;;;;;;5028045;28;20025;-69
2022/10/06 09:08:26;;;;;;;6.00;1.40;;;;;;;;;;5028887;28;20484;-69
2022/10/06 09:11:09;;;;;;;9.00;1.58;;;;;;;;;;5016737;28;20053;-69
2022/10/06 09:13:44;;;;;;;7.47;1.30;;;;;;;;;;5031066;28;20522;-69
2022/10/06 09:16:16;;;;;;;7.90;1.50;;;;;;;;;;5029703;28;20037;-68
2022/10/06 09:18:50;;;;;;;4.18;1.20;;;;;;;;;;5027689;28;20057;-67
2022/10/06 09:21:17;;;;;;;14.75;1.50;;;;;;;;;;5026849;28;20037;-67
2022/10/06 09:23:51;;;;;;;10.00;1.42;;;;;;;;;;5041095;28;20044;-66
2022/10/06 09:26:42;;;;;;;4.65;1.75;;;;;;;;;;5022084;28;20041;-65
2022/10/06 09:29:07;;;;;;;9.32;1.30;;;;;;;;;;5023562;28;20041;-66
2022/10/06 09:31:40;;;;;;;7.97;1.33;;;;;;;;;;5025972;28;20533;-67
2022/10/06 09:34:21;;;;;;;13.32;1.63;;;;;;;;;;5013644;28;20094;-67
2022/10/06 09:36:59;;;;;;;9.60;1.77;;;;;;;;;;5046531;28;20036;-63
2022/10/06 09:39:31;;;;;;;7.03;1.08;;;;;;;;;;5036478;28;21107;-66
2022/10/06 09:42:00;;;;;;;6.45;1.30;;;;;;;;;;5016919;28;20449;-69
2022/10/06 09:44:29;;;;;;;8.27;1.83;;;;;;;;;;5028133;28;20083;-66
2022/10/06 09:46:55;;;;;;;7.30;1.52;;;;;;;;;;5024177;28;20028;-66
2022/10/06 09:49:22;;;;;;;4.82;1.20;;;;;;;;;;5026980;28;20044;-67
2022/10/06 09:52:14;;;;;;;5.78;1.40;;;;;;;;;;5008396;28;20527;-66
2022/10/06 09:54:42;;;;;;;10.30;1.83;;;;;;;;;;5035286;28;20052;-70
2022/10/06 09:57:13;;;;;;;6.13;1.30;;;;;;;;;;5047088;28;20082;-69
2022/10/06 09:59:44;;;;;;;11.70;1.52;;;;;;;;;;5032065;28;20024;-69
2022/10/06 10:02:35;;;;;;;6.35;1.45;;;;;;;;;;5049161;28;20062;-69
2022/10/06 10:05:06;;;;;;;7.00;1.52;;;;;;;;;;5067155;28;20413;-69
2022/10/06 10:07:34;;;;;;;9.93;1.73;;;;;;;;;;5061180;28;20623;-68
2022/10/06 10:10:34;;;;;;;6.80;1.38;;;;;;;;;;5064059;28;20037;-69
2022/10/06 10:12:59;;;;;;;12.50;1.88;;;;;;;;;;5023471;28;20847;-68
2022/10/06 10:15:28;;;;;;;8.57;1.55;;;;;;;;;;5066679;28;20033;-69
2022/10/06 10:17:55;;;;;;;6.00;1.10;;;;;;;;;;5067105;28;20028;-68
2022/10/06 10:20:24;;;;;;;13.40;1.55;;;;;;;;;;5065459;28;20043;-69
2022/10/06 10:22:51;;;;;;;11.73;1.38;;;;;;;;;;5046201;28;20095;-69
2022/10/06 10:25:32;;;;;;;12.77;1.52;;;;;;;;;;5045114;28;20481;-68
2022/10/06 10:28:07;;;;;;;6.10;1.52;;;;;;;;;;5041093;28;20095;-68
2022/10/06 10:30:48;;;;;;;6.97;1.00;;;;;;;;;;5048227;28;20037;-68
2022/10/06 10:33:40;;;;;;;6.47;1.40;;;;;;;;;;5028871;28;20047;-68
2022/10/06 10:36:09;;;;;;;5.10;0.93;;;;;;;;;;5028655;28;20454;-69
2022/10/06 10:38:41;;;;;;;8.27;1.30;;;;;;;;;;5046961;28;20033;-69
2022/10/06 10:41:14;;;;;;;12.02;1.50;;;;;;;;;;5028061;28;20170;-69
2022/10/06 10:44:09;;;;;;;4.47;1.02;;;;;;;;;;5046430;28;20029;-69
2022/10/06 10:46:49;;;;;;;10.43;1.33;;;;;;;;;;5044840;28;20037;-68
2022/10/06 10:49:20;;;;;;;5.30;1.30;;;;;;;;;;5045207;28;20033;-68
2022/10/06 10:51:54;;;;;;;7.68;0.80;;;;;;;;;;5045035;28;20125;-69
2022/10/06 10:55:10;;;;;;;12.07;0.88;;;;;;;;;;5040311;28;20036;-68
2022/10/06 10:57:40;;;;;;;3.15;1.10;;;;;;;;;;5028169;28;20029;-68
2022/10/06 11:00:19;;;;;;;7.80;1.20;;;;;;;;;;5038349;28;20064;-69
2022/10/06 11:02:45;;;;;;;8.40;1.23;;;;;;;;;;5026540;28;20376;-69
2022/10/06 11:05:32;;;;;;;8.38;1.00;;;;;;;;;;5028755;28;20040;-69
2022/10/06 11:08:09;;;;;;;5.38;1.48;;;;;;;;;;5028805;28;20037;-69
2022/10/06 11:10:48;;;;;;;7.35;1.08;;;;;;;;;;5030035;28;20065;-69
2022/10/06 11:13:40;;;;;;;3.05;0.95;;;;;;;;;;5029314;28;20053;-69
2022/10/06 11:16:20;;;;;;;4.75;1.10;;;;;;;;;;5029740;28;20473;-69
2022/10/06 11:19:10;;;;;;;3.85;1.15;;;;;;;;;;5028488;28;20087;-69
2022/10/06 11:21:46;;;;;;;3.72;0.90;;;;;;;;;;5028626;28;20074;-69
2022/10/06 11:24:19;;;;;;;4.00;1.00;;;;;;;;;;5029511;28;20159;-70
2022/10/06 11:27:03;;;;;;;4.68;1.40;;;;;;;;;;5029206;28;20106;-69
2022/10/06 11:29:34;;;;;;;;;;;;;;;;;;5028998;28;20132;-69
2022/10/06 11:31:59;;;;;;;7.45;1.48;;;;;;;;;;5029731;28;19917;-69
2022/10/06 11:34:25;;;;;;;4.93;1.00;;;;;;;;;;5029309;28;20542;-69
2022/10/06 11:37:40;;;;;;;3.65;0.80;;;;;;;;;;5028551;28;20034;-69
2022/10/06 11:40:43;;;;;;;11.32;1.10;;;;;;;;;;4995621;28;20080;-69
2022/10/06 11:43:16;;;;;;;6.50;1.10;;;;;;;;;;5011308;28;20037;-69
2022/10/06 11:45:53;;;;;;;3.33;1.00;;;;;;;;;;5029773;28;20502;-69
2022/10/06 11:48:28;;;;;;;8.70;1.00;;;;;;;;;;5043312;28;20033;-69
2022/10/06 11:50:55;;;;;;;6.97;1.15;;;;;;;;;;5049542;28;20071;-69
2022/10/06 11:53:36;;;;;;;8.20;1.20;;;;;;;;;;5050006;28;20059;-69
2022/10/06 11:56:38;;;;;;;3.83;0.95;;;;;;;;;;5031085;28;20369;-69
2022/10/06 11:59:11;;;;;;;6.82;1.30;;;;;;;;;;5045063;28;20095;-69
2022/10/06 12:01:37;;;;;;;;;;;;;;;;;;5049013;28;20037;-69
2022/10/06 12:04:09;;;;;;;11.48;1.00;;;;;;;;;;5027547;28;19968;-69
2022/10/06 12:06:40;;;;;;;4.85;1.10;;;;;;;;;;5061941;28;20028;-69
2022/10/06 12:09:30;;;;;;;6.10;1.15;;;;;;;;;;5065605;28;20032;-69
2022/10/06 12:12:05;;;;;;;6.18;0.95;;;;;;;;;;5068087;28;20048;-69
2022/10/06 12:14:33;;;;;;;5.53;1.23;;;;;;;;;;5046659;28;20430;-69
2022/10/06 12:17:10;;;;;;;6.10;0.98;;;;;;;;;;5029304;28;20583;-69
2022/10/06 12:19:41;;;;;;;10.18;1.40;;;;;;;;;;5047701;28;20041;-69
2022/10/06 12:22:48;;;;;;;3.35;0.90;;;;;;;;;;5055633;28;20398;-69
2022/10/06 12:25:57;;;;;;;5.88;1.13;;;;;;;;;;5066233;28;20045;-69
2022/10/06 12:28:37;;;;;;;4.00;1.38;;;;;;;;;;4986803;28;20121;-69
2022/10/06 12:31:17;;;;;;;5.28;1.58;;;;;;;;;;4986656;28;20058;-68
2022/10/06 12:33:43;;;;;;;3.83;1.05;;;;;;;;;;5043300;28;20089;-68
2022/10/06 12:36:18;;;;;;;8.60;1.33;;;;;;;;;;5050253;28;20037;-69
2022/10/06 12:39:03;;;;;;;3.67;1.13;;;;;;;;;;5066482;28;20042;-69
2022/10/06 12:42:00;;;;;;;3.88;1.10;;;;;;;;;;5046729;28;20122;-69
2022/10/06 12:44:32;;;;;;;11.70;1.08;;;;;;;;;;5043427;28;20041;-68
2022/10/06 12:47:04;;;;;;;6.65;1.15;;;;;;;;;;5047379;28;20103;-68
2022/10/06 12:49:42;;;;;;;5.07;1.67;;;;;;;;;;5046899;28;20071;-67
2022/10/06 12:52:32;;;;;;;3.60;1.00;;;;;;;;;;5045128;28;20621;-67
2022/10/06 12:55:02;;;;;;;6.53;1.17;;;;;;;;;;5030564;28;20067;-67
2022/10/06 12:57:29;;;;;;;5.15;1.25;;;;;;;;;;5026473;28;20120;-67
2022/10/06 12:59:55;;;;;;;4.22;1.05;;;;;;;;;;5027616;28;20083;-67
2022/10/06 13:02:27;;;;;;;7.40;1.17;;;;;;;;;;5033061;28;20025;-67
2022/10/06 13:04:53;;;;;;;8.25;1.40;;;;;;;;;;5024608;28;20045;-67
2022/10/06 13:07:22;;;;;;;7.85;1.25;;;;;;;;;;5030923;28;20042;-67
2022/10/06 13:09:54;;;;;;;1.77;0.90;;;;;;;;;;5049634;28;20028;-67
2022/10/06 13:12:31;;;;;;;5.55;0.90;;;;;;;;;;5044210;28;20105;-70
2022/10/06 13:15:18;;;;;;;10.27;1.10;;;;;;;;;;5046263;28;20108;-66
2022/10/06 13:17:51;;;;;;;4.43;0.88;;;;;;;;;;5027217;28;20052;-68
2022/10/06 13:20:26;;;;;;;4.38;1.00;;;;;;;;;;5032962;28;20510;-68
2022/10/06 13:23:20;;;;;;;11.18;1.30;;;;;;;;;;5029109;28;20060;-68
2022/10/06 13:25:48;;;;;;;5.40;1.50;;;;;;;;;;5028461;28;20764;-68
2022/10/06 13:28:19;;;;;;;3.35;1.05;;;;;;;;;;5046642;28;20052;-68
2022/10/06 13:31:19;;;;;;;6.60;1.05;;;;;;;;;;5046209;28;20068;-67
2022/10/06 13:33:49;;;;;;;5.03;1.10;;;;;;;;;;5026006;28;20037;-68
2022/10/06 13:36:15;;;;;;;6.63;1.10;;;;;;;;;;5047396;28;20029;-68
2022/10/06 13:38:41;;;;;;;5.13;0.80;;;;;;;;;;5045794;28;20027;-68
2022/10/06 13:41:18;;;;;;;2.55;0.70;;;;;;;;;;5047353;28;20029;-68
2022/10/06 13:43:56;;;;;;;9.15;1.10;;;;;;;;;;5028878;28;20091;-68
2022/10/06 13:46:25;;;;;;;7.10;1.55;;;;;;;;;;5028864;28;20125;-68
2022/10/06 13:48:55;;;;;;;3.20;0.75;;;;;;;;;;5044897;28;20060;-68
2022/10/06 13:51:30;;;;;;;7.85;1.20;;;;;;;;;;5022590;28;20063;-68
2022/10/06 13:54:04;;;;;;;7.70;1.50;;;;;;;;;;5028019;28;20524;-68
2022/10/06 13:56:38;;;;;;;5.75;1.10;;;;;;;;;;5046153;28;20025;-68
2022/10/06 13:59:26;;;;;;;4.13;0.95;;;;;;;;;;5045222;28;20029;-68
2022/10/06 14:01:51;;;;;;;3.83;1.10;;;;;;;;;;5044564;28;20804;-68
2022/10/06 14:04:17;;;;;;;3.88;1.33;;;;;;;;;;5046161;28;20037;-68
2022/10/06 14:06:54;;;;;;;5.32;1.02;;;;;;;;;;5045724;28;20040;-68
2022/10/06 14:09:23;;;;;;;5.40;1.15;;;;;;;;;;5028651;28;20029;-68
2022/10/06 14:11:50;;;;;;;10.05;1.35;;;;;;;;;;5030746;28;20045;-68
2022/10/06 14:14:16;;;;;;;8.38;1.15;;;;;;;;;;5026750;28;20052;-67
2022/10/06 14:16:48;;;;;;;4.85;1.10;;;;;;;;;;5045546;28;20029;-68
2022/10/06 14:19:46;;;;;;;5.85;0.85;;;;;;;;;;5045993;28;20128;-68
2022/10/06 14:22:37;;;;;;;5.90;1.20;;;;;;;;;;4996040;28;20073;-68
2022/10/06 14:25:10;;;;;;;3.75;0.93;;;;;;;;;;5055253;28;20764;-68
2022/10/06 14:27:35;;;;;;;5.78;1.58;;;;;;;;;;5049066;28;20041;-68
2022/10/06 14:30:00;;;;;;;13.77;2.95;;;;;;;;;;5066540;28;20033;-68
2022/10/06 14:32:25;;;;;;;6.97;1.50;;;;;;;;;;5067606;28;20389;-68
2022/10/06 14:34:51;;;;;;;7.50;1.10;;;;;;;;;;5066902;28;20086;-68
2022/10/06 14:37:16;;;;;;;6.38;1.00;;;;;;;;;;5026020;28;20116;-68
2022/10/06 14:39:43;;;;;;;6.68;1.27;;;;;;;;;;5045091;28;20040;-68
2022/10/06 14:42:08;;;;;;;7.25;0.98;;;;;;;;;;5050779;28;20052;-68
2022/10/06 14:44:34;;;;;;;8.88;1.20;;;;;;;;;;5033188;28;20049;-68
2022/10/06 14:46:59;;;;;;;8.45;1.48;;;;;;;;;;5052625;28;20037;-68
2022/10/06 14:49:25;;;;;;;10.80;1.30;;;;;;;;;;5049760;28;20118;-67
2022/10/06 14:51:54;;;;;;;3.25;1.00;;;;;;;;;;5046818;28;20028;-67
2022/10/06 14:54:20;;;;;;;7.95;1.30;;;;;;;;;;5057299;28;20032;-68
2022/10/06 14:56:45;;;;;;;4.90;1.40;;;;;;;;;;5052688;28;20109;-68
2022/10/06 14:59:15;;;;;;;5.40;1.42;;;;;;;;;;5070523;28;20476;-67
2022/10/06 15:01:41;;;;;;;7.05;1.10;;;;;;;;;;5070020;28;20036;-66
2022/10/06 15:04:13;;;;;;;5.97;1.20;;;;;;;;;;5070127;28;20043;-67
2022/10/06 15:09:22;;;;;;;6.35;0.65;;;;;;;;;;5036672;28;20637;-67
2022/10/06 15:11:48;;;;;;;7.18;1.25;;;;;;;;;;5046655;28;20132;-67
2022/10/06 15:14:14;;;;;;;7.75;1.23;;;;;;;;;;5069813;28;20031;-67
2022/10/06 15:16:41;;;;;;;3.85;0.93;;;;;;;;;;5047445;28;20036;-67